This is the latest recevied weather packets stored in our database for station/object WD4IXD. If no packets are shown the sender has not sent any weather packets the latest 10 day(s).
| Time | Temp. | Humidity | Pressure | Rain* | Wind** | Luminosity | Snow |
|---|---|---|---|---|---|---|---|
| 1777667114 | 16.67° C | 26% | 1020 hPa | 0 mm | - | 193 W/m² | - |
| 1777666804 | 16.67° C | 26% | 1020.1 hPa | 0 mm | - | 225 W/m² | - |
| 1777666515 | 16.11° C | 28% | 1020.1 hPa | 0 mm | - | 1009 W/m² | - |
| 1777666203 | 16.11° C | 28% | 1020.1 hPa | 0 mm | - | 995 W/m² | - |
| 1777665904 | 16.11° C | 27% | 1020.2 hPa | 0 mm | - | 995 W/m² | - |
| 1777665603 | 16.11° C | 28% | 1020.2 hPa | 0 mm | - | 1028 W/m² | - |
| 1777665315 | 16.67° C | 25% | 1020.3 hPa | 0 mm | - | 172 W/m² | - |
| 1777665004 | 17.22° C | 26% | 1020.3 hPa | 0 mm | - | 156 W/m² | - |
| 1777664715 | 16.11° C | 29% | 1020.2 hPa | 0 mm | - | 1078 W/m² | - |
| 1777664404 | 15° C | 29% | 1020.3 hPa | 0 mm | - | 1049 W/m² | - |
| 1777664115 | 15° C | 30% | 1020.2 hPa | 0 mm | - | 1020 W/m² | - |
| 1777663804 | 15° C | 30% | 1020.4 hPa | 0 mm | - | 1007 W/m² | - |
| 1777663515 | 15° C | 31% | 1020.4 hPa | 0 mm | - | 1027 W/m² | - |
| 1777663204 | 14.44° C | 31% | 1020.4 hPa | 0 mm | - | 1025 W/m² | - |
| 1777662915 | 14.44° C | 32% | 1020.4 hPa | 0 mm | - | 1086 W/m² | - |
| 1777662604 | 14.44° C | 32% | 1020.4 hPa | 0 mm | - | 1086 W/m² | - |
| 1777662316 | 15° C | 31% | 1020.5 hPa | 0 mm | - | 1063 W/m² | - |
| 1777662004 | 16.11° C | 32% | 1020.6 hPa | 0 mm | - | 1021 W/m² | - |
| 1777661715 | 15.56° C | 30% | 1020.6 hPa | 0 mm | - | 1016 W/m² | - |
| 1777661415 | 15.56° C | 32% | 1020.6 hPa | 0 mm | - | 1013 W/m² | - |
| 1777661104 | 14.44° C | 31% | 1020.7 hPa | 0 mm | - | 1032 W/m² | - |
| 1777660804 | 15° C | 33% | 1020.7 hPa | 0 mm | - | 1037 W/m² | - |
| 1777660515 | 13.89° C | 34% | 1020.7 hPa | 0 mm | - | 1034 W/m² | - |
| 1777660204 | 13.33° C | 33% | 1020.7 hPa | 0 mm | - | 1027 W/m² | - |
| 1777659915 | 14.44° C | 34% | 1020.8 hPa | 0 mm | - | 230 W/m² | - |
* Rain latest hour (hover to see other rain measurements)
** Current wind speed in m/s (hover to see current wind gust speed)